createdAt,value
2018-10-05T00:00:59.355Z,7.70
2018-10-05T00:03:26.907Z,7.70
2018-10-05T00:05:54.428Z,7.70
2018-10-05T00:08:22.043Z,7.70
2018-10-05T00:10:49.644Z,7.60
2018-10-05T00:13:17.249Z,7.60
2018-10-05T00:15:44.848Z,7.50
2018-10-05T00:18:12.408Z,7.50
2018-10-05T00:20:39.967Z,7.50
2018-10-05T00:23:07.545Z,7.50
2018-10-05T00:25:35.208Z,7.50
2018-10-05T00:28:02.794Z,7.50
2018-10-05T00:30:30.355Z,7.40
2018-10-05T00:32:57.896Z,7.40
2018-10-05T00:35:25.503Z,7.30
2018-10-05T00:37:53.280Z,7.30
2018-10-05T00:40:20.819Z,7.30
2018-10-05T00:42:48.370Z,7.30
2018-10-05T00:45:15.977Z,7.30
2018-10-05T00:47:43.565Z,7.30
2018-10-05T00:50:11.147Z,7.30
2018-10-05T00:52:38.701Z,7.20
2018-10-05T00:55:06.476Z,7.20
2018-10-05T00:57:34.053Z,7.20
2018-10-05T01:00:01.624Z,7.20
2018-10-05T01:02:29.177Z,7.20
2018-10-05T01:04:56.725Z,7.10
2018-10-05T01:07:24.289Z,7.10
2018-10-05T01:09:51.885Z,7.10
2018-10-05T01:12:19.482Z,7.10
2018-10-05T01:14:47.904Z,7.00
2018-10-05T01:17:15.469Z,7.00
2018-10-05T01:19:43.117Z,7.00
2018-10-05T01:22:10.674Z,7.00
2018-10-05T01:24:38.264Z,7.00
2018-10-05T01:27:05.823Z,6.90
2018-10-05T01:29:33.384Z,6.90
2018-10-05T01:32:00.923Z,6.90
2018-10-05T01:34:28.488Z,6.90
2018-10-05T01:36:56.060Z,6.80
2018-10-05T01:39:23.680Z,6.80
2018-10-05T01:41:51.366Z,6.80
2018-10-05T01:44:18.937Z,6.70
2018-10-05T01:46:46.529Z,6.70
2018-10-05T01:49:14.096Z,6.70
2018-10-05T01:51:41.659Z,6.70
2018-10-05T01:54:09.218Z,6.60
2018-10-05T01:56:36.772Z,6.60
2018-10-05T01:59:04.402Z,6.60
2018-10-05T02:01:32.535Z,6.50
2018-10-05T02:04:00.311Z,6.50
2018-10-05T02:06:27.864Z,6.50
2018-10-05T02:08:55.547Z,6.50
2018-10-05T02:11:23.092Z,6.50
2018-10-05T02:13:50.637Z,6.40
2018-10-05T02:16:18.229Z,6.40
2018-10-05T02:18:45.753Z,6.40
2018-10-05T02:21:13.345Z,6.40
2018-10-05T02:23:41.189Z,6.40
2018-10-05T02:26:08.826Z,6.30
2018-10-05T02:28:36.404Z,6.30
2018-10-05T02:31:04.140Z,6.30
2018-10-05T02:33:31.679Z,6.30
2018-10-05T02:35:59.237Z,6.20
2018-10-05T02:38:26.851Z,6.20
2018-10-05T02:40:54.417Z,6.20
2018-10-05T02:43:21.977Z,6.20
2018-10-05T02:45:56.177Z,6.20
2018-10-05T02:48:23.708Z,6.20
2018-10-05T02:50:51.259Z,6.20
2018-10-05T02:53:18.866Z,6.20
2018-10-05T02:55:46.409Z,6.10
2018-10-05T02:58:13.956Z,6.10
2018-10-05T03:00:52.852Z,6.10
2018-10-05T03:03:20.440Z,6.10
2018-10-05T03:05:48.036Z,6.00
2018-10-05T03:08:15.579Z,6.00
2018-10-05T03:10:43.095Z,6.00
2018-10-05T03:13:10.638Z,6.00
2018-10-05T03:15:38.206Z,5.90
2018-10-05T03:18:05.809Z,5.90
2018-10-05T03:20:33.372Z,5.90
2018-10-05T03:23:00.904Z,5.80
2018-10-05T03:25:28.421Z,5.80
2018-10-05T03:27:55.960Z,5.80
2018-10-05T03:30:23.534Z,5.80
2018-10-05T03:32:51.073Z,5.70
2018-10-05T03:35:19.257Z,5.70
2018-10-05T03:37:46.795Z,5.70
2018-10-05T03:40:14.363Z,5.70
2018-10-05T03:42:41.928Z,5.70
2018-10-05T03:45:09.452Z,5.70
2018-10-05T03:47:37.013Z,5.70
2018-10-05T03:50:04.595Z,5.60
2018-10-05T03:52:32.177Z,5.60
2018-10-05T03:54:59.711Z,5.60
2018-10-05T03:57:27.288Z,5.60
2018-10-05T03:59:54.828Z,5.60
2018-10-05T04:02:22.380Z,5.60
2018-10-05T04:04:49.964Z,5.60
2018-10-05T04:07:17.531Z,5.60
2018-10-05T04:09:45.133Z,5.50
2018-10-05T04:12:12.690Z,5.50
2018-10-05T04:14:40.309Z,5.50
2018-10-05T04:17:07.866Z,5.50
2018-10-05T04:19:35.442Z,5.50
2018-10-05T04:22:02.991Z,5.40
2018-10-05T04:24:30.576Z,5.40
2018-10-05T04:26:58.164Z,5.40
2018-10-05T04:29:27.031Z,5.40
2018-10-05T04:31:54.620Z,5.40
2018-10-05T04:34:22.210Z,5.40
2018-10-05T04:36:49.786Z,5.40
2018-10-05T04:39:17.332Z,5.40
2018-10-05T04:41:44.889Z,5.40
2018-10-05T04:44:12.450Z,5.30
2018-10-05T04:46:40.090Z,5.30
2018-10-05T04:49:07.650Z,5.30
2018-10-05T04:51:35.309Z,5.30
2018-10-05T04:54:02.839Z,5.30
2018-10-05T04:56:30.379Z,5.30
2018-10-05T04:58:57.953Z,5.30
2018-10-05T05:01:25.480Z,5.30
2018-10-05T05:03:53.030Z,5.30
2018-10-05T05:06:20.624Z,5.30
2018-10-05T05:08:48.201Z,5.30
2018-10-05T05:11:15.768Z,5.30
2018-10-05T05:13:43.319Z,5.30
2018-10-05T05:16:10.903Z,5.30
2018-10-05T05:18:38.552Z,5.20
2018-10-05T05:21:06.125Z,5.20
2018-10-05T05:23:33.655Z,5.20
2018-10-05T05:26:01.239Z,5.20
2018-10-05T05:28:28.797Z,5.20
2018-10-05T05:30:56.387Z,5.20
2018-10-05T05:33:23.955Z,5.20
2018-10-05T05:35:51.570Z,5.20
2018-10-05T05:38:19.159Z,5.10
2018-10-05T05:40:46.773Z,5.10
2018-10-05T05:43:14.419Z,5.10
2018-10-05T05:45:42.018Z,5.20
2018-10-05T05:48:09.620Z,5.30
2018-10-05T05:50:37.213Z,5.60
2018-10-05T05:53:04.817Z,6.10
2018-10-05T05:55:32.417Z,6.60
2018-10-05T05:57:59.988Z,7.20
2018-10-05T06:00:27.534Z,7.90
2018-10-05T06:02:55.119Z,8.50
2018-10-05T06:05:22.651Z,9.00
2018-10-05T06:07:50.217Z,9.70
2018-10-05T06:10:17.778Z,10.30
2018-10-05T06:12:45.341Z,10.50
2018-10-05T06:15:12.944Z,10.60
2018-10-05T06:17:40.637Z,10.50
2018-10-05T06:20:08.215Z,10.30
2018-10-05T06:22:35.881Z,10.10
2018-10-05T06:25:03.382Z,10.00
2018-10-05T06:27:31.020Z,9.90
2018-10-05T06:29:58.494Z,9.70
2018-10-05T06:32:26.028Z,9.60
2018-10-05T06:34:53.561Z,9.50
2018-10-05T06:37:21.287Z,9.80
2018-10-05T06:39:48.847Z,11.20
2018-10-05T06:42:16.603Z,12.90
2018-10-05T06:44:44.009Z,14.60
2018-10-05T06:47:11.562Z,16.40
2018-10-05T06:49:39.117Z,18.20
2018-10-05T06:52:06.665Z,19.80
2018-10-05T06:54:34.241Z,21.30
2018-10-05T06:57:01.777Z,22.60
2018-10-05T06:59:29.380Z,23.90
2018-10-05T07:01:56.925Z,25.10
2018-10-05T07:04:24.570Z,26.20
2018-10-05T07:06:52.131Z,26.90
2018-10-05T07:09:19.768Z,27.50
2018-10-05T07:11:47.344Z,28.20
2018-10-05T07:14:14.888Z,28.90
2018-10-05T07:16:42.514Z,29.90
2018-10-05T07:19:10.117Z,30.70
2018-10-05T07:21:37.697Z,31.40
2018-10-05T07:24:05.266Z,32.10
2018-10-05T07:26:32.828Z,32.80
2018-10-05T07:29:00.349Z,33.60
2018-10-05T07:31:27.928Z,34.30
2018-10-05T07:33:55.516Z,35.20
2018-10-05T07:36:23.062Z,35.90
2018-10-05T07:38:50.589Z,36.60
2018-10-05T07:41:18.168Z,37.20
2018-10-05T07:43:45.774Z,37.70
2018-10-05T07:46:13.348Z,38.20
2018-10-05T07:48:40.904Z,38.80
2018-10-05T07:51:08.495Z,39.30
2018-10-05T07:53:36.055Z,39.90
2018-10-05T07:56:03.653Z,40.50
2018-10-05T07:58:31.230Z,41.00
2018-10-05T08:00:58.846Z,41.30
2018-10-05T08:03:26.368Z,41.80
2018-10-05T08:05:53.906Z,42.30
2018-10-05T08:08:21.504Z,42.70
2018-10-05T08:10:49.122Z,43.00
2018-10-05T08:13:16.658Z,43.30
2018-10-05T08:15:44.228Z,43.40
2018-10-05T08:18:11.778Z,43.60
2018-10-05T08:20:39.384Z,43.70
2018-10-05T08:23:06.929Z,43.70
2018-10-05T08:25:34.498Z,43.90
2018-10-05T08:28:02.177Z,44.10
2018-10-05T08:30:29.639Z,44.40
2018-10-05T08:32:57.198Z,44.80
2018-10-05T08:35:24.732Z,45.20
2018-10-05T08:37:52.279Z,45.60
2018-10-05T08:40:19.979Z,46.10
2018-10-05T08:42:47.514Z,46.70
2018-10-05T08:45:15.054Z,47.00
2018-10-05T08:47:42.612Z,47.20
2018-10-05T08:50:10.172Z,47.30
2018-10-05T08:52:37.746Z,47.50
2018-10-05T08:55:05.393Z,47.20
2018-10-05T08:57:32.967Z,47.00
2018-10-05T09:00:00.596Z,47.00
2018-10-05T09:02:28.085Z,47.00
2018-10-05T09:04:55.637Z,47.00
2018-10-05T09:07:23.465Z,46.00
2018-10-05T09:09:51.022Z,44.90
2018-10-05T09:12:18.568Z,43.70
2018-10-05T09:14:46.144Z,43.30
2018-10-05T09:17:13.702Z,43.10
2018-10-05T09:19:41.292Z,42.80
2018-10-05T09:22:08.858Z,41.90
2018-10-05T09:24:36.419Z,41.60
2018-10-05T09:27:04.062Z,42.10
2018-10-05T09:29:31.665Z,42.40
2018-10-05T09:31:59.248Z,42.20
2018-10-05T09:34:26.844Z,41.80
2018-10-05T09:36:54.784Z,41.50
2018-10-05T09:39:22.469Z,41.70
2018-10-05T09:41:50.045Z,42.20
2018-10-05T09:44:17.752Z,42.50
2018-10-05T09:46:45.331Z,42.70
2018-10-05T09:49:12.962Z,42.30
2018-10-05T09:51:40.563Z,42.10
2018-10-05T09:54:08.308Z,42.60
2018-10-05T09:56:35.884Z,43.80
2018-10-05T09:59:03.448Z,44.80
2018-10-05T10:01:36.581Z,45.40
2018-10-05T10:04:04.100Z,45.50
2018-10-05T10:06:31.703Z,45.20
2018-10-05T10:08:59.277Z,45.40
2018-10-05T10:11:26.849Z,45.90
2018-10-05T10:13:54.493Z,45.70
2018-10-05T10:16:22.065Z,46.20
2018-10-05T10:18:49.647Z,46.80
2018-10-05T10:21:17.271Z,47.20
2018-10-05T10:23:44.784Z,47.70
2018-10-05T10:26:12.387Z,48.40
2018-10-05T10:28:40.145Z,47.80
2018-10-05T10:31:07.617Z,47.90
2018-10-05T10:33:35.211Z,48.40
2018-10-05T10:36:02.748Z,48.60
2018-10-05T10:38:30.341Z,49.00
2018-10-05T10:40:57.897Z,49.40
2018-10-05T10:43:25.440Z,49.90
2018-10-05T10:45:53.017Z,50.20
2018-10-05T10:48:20.583Z,50.70
2018-10-05T10:50:48.164Z,50.60
2018-10-05T10:53:15.725Z,50.90
2018-10-05T10:55:43.288Z,50.20
2018-10-05T10:58:10.860Z,49.70
2018-10-05T11:00:38.583Z,48.90
2018-10-05T11:03:06.202Z,48.60
2018-10-05T11:05:33.730Z,48.80
2018-10-05T11:08:01.336Z,49.20
2018-10-05T11:10:28.884Z,49.40
2018-10-05T11:12:56.450Z,49.40
2018-10-05T11:15:24.090Z,49.60
2018-10-05T11:17:51.628Z,50.00
2018-10-05T11:20:19.179Z,50.40
2018-10-05T11:22:46.729Z,50.90
2018-10-05T11:25:14.260Z,51.30
2018-10-05T11:27:41.797Z,51.50
2018-10-05T11:30:09.716Z,51.40
2018-10-05T11:32:37.324Z,51.30
2018-10-05T11:35:05.038Z,51.20
2018-10-05T11:37:32.560Z,51.10
2018-10-05T11:40:00.114Z,50.40
2018-10-05T11:42:27.669Z,50.30
2018-10-05T11:44:55.218Z,50.50
2018-10-05T11:47:22.847Z,50.50
2018-10-05T11:49:50.382Z,50.60
2018-10-05T11:52:17.920Z,50.60
2018-10-05T11:54:45.643Z,50.50
2018-10-05T11:57:13.169Z,50.40
2018-10-05T11:59:40.809Z,50.50
2018-10-05T12:02:08.326Z,50.50
2018-10-05T12:04:35.921Z,50.50
2018-10-05T12:07:03.460Z,50.50
2018-10-05T12:09:31.022Z,50.60
2018-10-05T12:11:58.619Z,50.60
2018-10-05T12:14:26.241Z,50.50
2018-10-05T12:16:53.850Z,50.40
2018-10-05T12:19:21.432Z,50.00
2018-10-05T12:21:49.009Z,49.60
2018-10-05T12:24:16.615Z,49.40
2018-10-05T12:26:44.283Z,49.40
2018-10-05T12:29:11.826Z,49.50
2018-10-05T12:31:39.432Z,49.60
2018-10-05T12:34:07.044Z,49.40
2018-10-05T12:36:34.654Z,49.40
2018-10-05T12:39:02.348Z,49.30
2018-10-05T12:41:29.939Z,49.20
2018-10-05T12:43:57.519Z,48.70
2018-10-05T12:46:25.092Z,48.60
2018-10-05T12:48:52.676Z,48.60
2018-10-05T12:51:20.209Z,48.40
2018-10-05T12:53:47.823Z,48.30
2018-10-05T12:56:15.367Z,48.20
2018-10-05T12:58:42.940Z,48.10
2018-10-05T13:01:10.501Z,47.60
2018-10-05T13:03:38.036Z,47.20
2018-10-05T13:06:05.842Z,47.10
2018-10-05T13:08:33.497Z,47.00
2018-10-05T13:11:01.094Z,46.70
2018-10-05T13:13:28.627Z,46.30
2018-10-05T13:15:56.209Z,45.60
2018-10-05T13:18:23.809Z,44.80
2018-10-05T13:20:51.389Z,44.20
2018-10-05T13:23:19.018Z,44.20
2018-10-05T13:25:46.592Z,44.00
2018-10-05T13:28:14.129Z,44.00
2018-10-05T13:30:41.682Z,43.70
2018-10-05T13:33:09.196Z,43.40
2018-10-05T13:35:36.740Z,43.20
2018-10-05T13:38:04.431Z,43.10
2018-10-05T13:40:32.008Z,43.00
2018-10-05T13:42:59.600Z,42.90
2018-10-05T13:45:27.200Z,42.80
2018-10-05T13:47:54.803Z,42.60
2018-10-05T13:50:22.371Z,42.20
2018-10-05T13:52:49.896Z,41.80
2018-10-05T13:55:17.433Z,41.60
2018-10-05T13:57:45.002Z,41.50
2018-10-05T14:00:12.557Z,41.30
2018-10-05T14:02:40.171Z,40.90
2018-10-05T14:05:07.743Z,40.40
2018-10-05T14:07:35.359Z,40.00
2018-10-05T14:10:03.305Z,39.90
2018-10-05T14:12:30.841Z,39.80
2018-10-05T14:14:58.528Z,39.80
2018-10-05T14:17:26.120Z,39.50
2018-10-05T14:19:53.644Z,39.30
2018-10-05T14:22:21.356Z,39.20
2018-10-05T14:24:48.924Z,38.90
2018-10-05T14:27:16.514Z,38.60
2018-10-05T14:29:44.035Z,38.30
2018-10-05T14:32:11.584Z,37.90
2018-10-05T14:34:39.155Z,37.60
2018-10-05T14:37:06.814Z,37.50
2018-10-05T14:39:34.412Z,37.30
2018-10-05T14:42:02.000Z,37.20
2018-10-05T14:44:29.548Z,36.90
2018-10-05T14:46:57.165Z,36.70
2018-10-05T14:49:24.891Z,36.40
2018-10-05T14:51:52.488Z,36.10
2018-10-05T14:54:20.073Z,35.90
2018-10-05T14:56:47.652Z,35.60
2018-10-05T14:59:15.275Z,35.40
2018-10-05T15:01:42.895Z,35.30
2018-10-05T15:04:10.490Z,35.20
2018-10-05T15:06:38.096Z,35.00
2018-10-05T15:09:05.733Z,34.80
2018-10-05T15:11:33.692Z,34.60
2018-10-05T15:14:01.302Z,34.50
2018-10-05T15:16:28.891Z,34.30
2018-10-05T15:18:56.515Z,34.00
2018-10-05T15:21:24.097Z,33.70
2018-10-05T15:23:51.656Z,33.40
2018-10-05T15:26:19.246Z,33.00
2018-10-05T15:28:46.830Z,32.80
2018-10-05T15:31:14.444Z,32.60
2018-10-05T15:33:42.010Z,32.40
2018-10-05T15:36:09.628Z,32.20
2018-10-05T15:38:37.294Z,31.90
2018-10-05T15:41:04.961Z,31.60
2018-10-05T15:43:32.657Z,31.40
2018-10-05T15:46:07.576Z,31.10
2018-10-05T15:48:35.572Z,30.90
2018-10-05T15:51:03.829Z,30.60
2018-10-05T15:53:32.041Z,30.30
2018-10-05T15:55:59.652Z,30.10
2018-10-05T15:58:27.656Z,29.90
2018-10-05T16:00:55.240Z,29.70
2018-10-05T16:03:22.979Z,29.40
2018-10-05T16:05:50.852Z,29.20
2018-10-05T16:08:18.416Z,29.00
2018-10-05T16:10:46.126Z,28.70
2018-10-05T16:13:14.346Z,28.50
2018-10-05T16:15:42.225Z,28.20
2018-10-05T16:18:10.221Z,28.00
2018-10-05T16:20:37.801Z,27.60
2018-10-05T16:23:05.939Z,27.30
2018-10-05T16:25:33.504Z,26.90
2018-10-05T16:28:01.176Z,26.50
2018-10-05T16:30:28.758Z,26.10
2018-10-05T16:32:56.330Z,25.80
2018-10-05T16:35:23.886Z,25.40
2018-10-05T16:37:51.517Z,25.00
2018-10-05T16:40:19.255Z,24.70
2018-10-05T16:42:46.853Z,24.40
2018-10-05T16:45:14.461Z,24.10
2018-10-05T16:47:42.117Z,23.70
2018-10-05T16:50:09.682Z,23.40
2018-10-05T16:52:37.280Z,23.10
2018-10-05T16:55:04.972Z,22.80
2018-10-05T16:57:32.576Z,22.50
2018-10-05T17:00:00.157Z,22.20
2018-10-05T17:02:27.875Z,21.90
2018-10-05T17:04:55.519Z,21.70
2018-10-05T17:07:23.115Z,21.40
2018-10-05T17:09:50.660Z,21.10
2018-10-05T17:12:18.230Z,20.90
2018-10-05T17:14:45.833Z,20.70
2018-10-05T17:17:13.460Z,20.50
2018-10-05T17:19:41.041Z,20.30
2018-10-05T17:22:08.632Z,20.10
2018-10-05T17:24:36.209Z,19.90
2018-10-05T17:27:03.833Z,19.70
2018-10-05T17:29:31.469Z,19.50
2018-10-05T17:31:59.077Z,19.30
2018-10-05T17:34:26.643Z,19.10
2018-10-05T17:36:54.277Z,18.90
2018-10-05T17:39:21.864Z,18.70
2018-10-05T17:41:49.407Z,18.50
2018-10-05T17:44:17.084Z,18.40
2018-10-05T17:46:44.655Z,18.20
2018-10-05T17:49:12.216Z,18.10
2018-10-05T17:51:39.808Z,18.00
2018-10-05T17:54:07.488Z,17.90
2018-10-05T17:56:35.075Z,17.80
2018-10-05T17:59:02.871Z,17.60
2018-10-05T18:01:30.556Z,17.50
2018-10-05T18:03:58.121Z,17.40
2018-10-05T18:06:25.720Z,17.30
2018-10-05T18:08:53.322Z,17.20
2018-10-05T18:11:20.911Z,17.00
2018-10-05T18:13:48.489Z,17.00
2018-10-05T18:16:16.164Z,16.90
2018-10-05T18:18:43.735Z,16.80
2018-10-05T18:21:11.301Z,16.70
2018-10-05T18:23:38.889Z,16.60
2018-10-05T18:26:06.577Z,16.30
2018-10-05T18:28:34.134Z,16.20
2018-10-05T18:31:01.744Z,16.20
2018-10-05T18:33:29.368Z,16.10
2018-10-05T18:35:56.979Z,16.00
2018-10-05T18:38:24.593Z,15.90
2018-10-05T18:40:52.163Z,15.80
2018-10-05T18:43:19.741Z,15.80
2018-10-05T18:45:47.324Z,15.70
2018-10-05T18:48:14.909Z,15.60
2018-10-05T18:50:42.620Z,15.50
2018-10-05T18:53:10.258Z,15.40
2018-10-05T18:55:37.859Z,15.30
2018-10-05T18:58:05.537Z,15.30
2018-10-05T19:00:33.159Z,15.20
2018-10-05T19:03:00.767Z,15.10
2018-10-05T19:05:28.331Z,15.10
2018-10-05T19:07:55.957Z,15.00
2018-10-05T19:10:23.578Z,15.00
2018-10-05T19:12:51.238Z,15.00
2018-10-05T19:15:18.928Z,14.90
2018-10-05T19:17:46.509Z,14.80
2018-10-05T19:20:14.196Z,14.70
2018-10-05T19:22:42.292Z,14.70
2018-10-05T19:25:09.900Z,14.60
2018-10-05T19:27:37.595Z,14.50
2018-10-05T19:30:05.224Z,14.50
2018-10-05T19:32:32.892Z,14.40
2018-10-05T19:35:00.512Z,14.40
2018-10-05T19:37:28.272Z,14.30
2018-10-05T19:39:55.814Z,14.30
2018-10-05T19:42:23.398Z,14.20
2018-10-05T19:44:51.048Z,14.20
2018-10-05T19:47:18.646Z,14.10
2018-10-05T19:49:46.214Z,14.10
2018-10-05T19:52:13.870Z,14.00
2018-10-05T19:54:41.546Z,13.90
2018-10-05T19:57:09.176Z,13.80
2018-10-05T19:59:36.757Z,13.80
2018-10-05T20:02:04.420Z,13.70
2018-10-05T20:04:31.971Z,13.60
2018-10-05T20:06:59.608Z,13.60
2018-10-05T20:09:27.272Z,13.50
2018-10-05T20:11:54.852Z,13.50
2018-10-05T20:14:22.554Z,13.50
2018-10-05T20:16:50.274Z,13.40
2018-10-05T20:19:17.860Z,13.40
2018-10-05T20:21:45.440Z,13.30
2018-10-05T20:24:13.071Z,13.30
2018-10-05T20:26:40.642Z,13.30
2018-10-05T20:29:08.290Z,13.20
2018-10-05T20:31:35.975Z,13.20
2018-10-05T20:34:03.582Z,13.20
2018-10-05T20:36:31.305Z,13.10
2018-10-05T20:38:58.864Z,13.10
2018-10-05T20:41:26.491Z,13.10
2018-10-05T20:43:54.168Z,13.00
2018-10-05T20:46:21.796Z,13.00
2018-10-05T20:48:49.341Z,12.90
2018-10-05T20:51:16.923Z,12.90
2018-10-05T20:53:44.514Z,12.90
2018-10-05T20:56:12.207Z,12.90
2018-10-05T20:58:39.993Z,12.80
2018-10-05T21:01:07.636Z,12.80
2018-10-05T21:03:35.467Z,12.80
2018-10-05T21:06:03.068Z,12.70
2018-10-05T21:08:30.703Z,12.70
2018-10-05T21:10:58.351Z,12.70
2018-10-05T21:13:26.097Z,12.60
2018-10-05T21:15:53.680Z,12.60
2018-10-05T21:18:21.450Z,12.60
2018-10-05T21:20:49.224Z,12.50
2018-10-05T21:23:16.778Z,12.50
2018-10-05T21:25:44.430Z,12.50
2018-10-05T21:28:12.017Z,12.40
2018-10-05T21:30:39.745Z,12.40
2018-10-05T21:33:08.215Z,12.40
2018-10-05T21:35:35.919Z,12.30
2018-10-05T21:38:03.546Z,12.30
2018-10-05T21:40:31.153Z,12.30
2018-10-05T21:42:58.723Z,12.20
2018-10-05T21:45:26.402Z,12.20
2018-10-05T21:47:53.990Z,12.20
2018-10-05T21:50:21.528Z,12.20
2018-10-05T21:52:49.088Z,12.10
2018-10-05T21:55:16.690Z,12.10
2018-10-05T21:57:44.265Z,12.10
2018-10-05T22:00:11.940Z,12.10
2018-10-05T22:02:39.545Z,12.10
2018-10-05T22:05:07.376Z,12.10
2018-10-05T22:07:35.237Z,12.10
2018-10-05T22:10:02.851Z,12.10
2018-10-05T22:12:30.872Z,12.10
2018-10-05T22:14:58.476Z,12.00
2018-10-05T22:17:26.282Z,12.00
2018-10-05T22:19:53.942Z,12.00
2018-10-05T22:22:21.512Z,11.90
2018-10-05T22:24:49.069Z,11.80
2018-10-05T22:27:16.675Z,11.90
2018-10-05T22:29:44.307Z,11.90
2018-10-05T22:32:11.909Z,11.90
2018-10-05T22:34:39.529Z,11.90
2018-10-05T22:37:07.073Z,11.90
2018-10-05T22:39:34.604Z,11.90
2018-10-05T22:42:02.191Z,11.80
2018-10-05T22:44:30.192Z,11.80
2018-10-05T22:46:58.248Z,11.80
2018-10-05T22:49:25.832Z,11.80
2018-10-05T22:51:53.447Z,11.80
2018-10-05T22:54:21.213Z,11.80
2018-10-05T22:56:48.780Z,11.80
2018-10-05T22:59:16.353Z,11.80
2018-10-05T23:01:43.992Z,11.80
2018-10-05T23:04:11.634Z,11.80
2018-10-05T23:06:39.217Z,11.70
2018-10-05T23:09:07.566Z,11.70
2018-10-05T23:11:35.233Z,11.70
2018-10-05T23:14:02.874Z,11.60
2018-10-05T23:16:30.532Z,11.60
2018-10-05T23:18:58.115Z,11.60
2018-10-05T23:21:25.693Z,11.50
2018-10-05T23:23:53.256Z,11.50
2018-10-05T23:26:20.819Z,11.50
2018-10-05T23:28:48.361Z,11.50
2018-10-05T23:31:15.933Z,11.40
2018-10-05T23:33:43.475Z,11.40
2018-10-05T23:36:11.069Z,11.40
2018-10-05T23:38:38.604Z,11.40
2018-10-05T23:41:06.679Z,11.30
2018-10-05T23:43:34.336Z,11.30
2018-10-05T23:46:01.949Z,11.30
2018-10-05T23:48:29.555Z,11.20
2018-10-05T23:50:57.090Z,11.20
2018-10-05T23:53:24.649Z,11.20
2018-10-05T23:55:52.191Z,11.20
2018-10-05T23:58:19.726Z,11.20
